Arnold, Kansas
Current Conditions -  °F | °C
As of 9:55 AM on Friday 31 Oct 2014 (Local Time) from KHYS Reporting Station
Overcast Overcast  
Wind Chill: 26°   Ceiling: 1900
Heat Index: 36°   Visibility: 10mi
Dew Point: 23°   Wind: 15mph
Humidity: 60%   Direction: 50°NE
Pressure: 30.55"   Gusts: NA
Location:  38.64°N, 100.05°W
Report Text: KHYS 311455Z AUTO 05013KT 10SM OVC019 02/M05 A3055 RMK AO1 52017
Loading
Personal Weather Stations






























Interactive Weather Map
Tropical Storm Tracking
New forecast layout! Learn more

10-Day Weather Forecast

Advertisements
Track Severe Weather on mobile